Bird City, Kansas
Current Conditions -  °F | °C
As of 1:55 AM on Saturday 20 Dec 2014 (Local Time) from KSYF Reporting Station
Clear Clear  
Wind Chill: 19°   Ceiling: Unl
Heat Index: 27°   Visibility: 10mi
Dew Point: 25°   Wind: 8mph
Humidity: 90%   Direction: 240°WSW
Pressure: 30.02"   Gusts: NA
Location:  39.75°N, 101.53°W
Report Text: KSYF 200755Z AUTO 24007KT 10SM CLR M03/M04 A3002 RMK AO2 T10261040
Loading
Personal Weather Stations






























Interactive Weather Map New forecast layout! Learn more

10-Day Weather Forecast

Advertisements
Track Severe Weather on mobile